createdAt,value
2019-01-30T00:02:02.421Z,29.57
2019-01-30T00:04:31.592Z,22.53
2019-01-30T00:07:00.818Z,19.90
2019-01-30T00:09:29.990Z,18.97
2019-01-30T00:11:59.159Z,18.10
2019-01-30T00:14:28.358Z,21.87
2019-01-30T00:16:57.560Z,33.30
2019-01-30T00:19:29.068Z,33.93
2019-01-30T00:21:58.230Z,35.50
2019-01-30T00:24:27.404Z,53.50
2019-01-30T00:26:56.627Z,36.43
2019-01-30T00:29:25.864Z,34.03
2019-01-30T00:31:55.033Z,35.87
2019-01-30T00:34:24.225Z,26.17
2019-01-30T00:36:53.417Z,22.13
2019-01-30T00:39:22.604Z,34.03
2019-01-30T00:41:51.838Z,30.60
2019-01-30T00:44:21.392Z,23.80
2019-01-30T00:46:50.604Z,23.43
2019-01-30T00:49:19.856Z,21.00
2019-01-30T00:51:49.041Z,18.30
2019-01-30T00:54:18.223Z,15.63
2019-01-30T00:56:47.881Z,16.60
2019-01-30T00:59:17.444Z,16.23
2019-01-30T01:01:46.655Z,20.73
2019-01-30T01:04:15.834Z,18.00
2019-01-30T01:06:45.127Z,22.07
2019-01-30T01:09:14.330Z,27.63
2019-01-30T01:11:43.546Z,32.17
2019-01-30T01:14:12.748Z,26.13
2019-01-30T01:16:41.928Z,22.87
2019-01-30T01:19:11.679Z,43.93
2019-01-30T01:21:40.871Z,42.10
2019-01-30T01:24:10.049Z,33.83
2019-01-30T01:26:39.227Z,23.90
2019-01-30T01:29:08.324Z,21.87
2019-01-30T01:31:37.529Z,17.73
2019-01-30T01:34:06.707Z,19.50
2019-01-30T01:36:35.911Z,20.57
2019-01-30T01:39:07.454Z,21.27
2019-01-30T01:41:36.627Z,19.60
2019-01-30T01:44:05.914Z,17.40
2019-01-30T01:46:35.099Z,18.00
2019-01-30T01:49:04.761Z,17.70
2019-01-30T01:51:33.959Z,17.20
2019-01-30T01:54:04.599Z,16.87
2019-01-30T01:56:33.830Z,17.17
2019-01-30T01:59:03.016Z,16.13
2019-01-30T02:01:32.226Z,14.73
2019-01-30T02:04:01.754Z,23.93
2019-01-30T02:06:30.933Z,23.43
2019-01-30T02:09:00.140Z,22.50
2019-01-30T02:11:29.344Z,34.37
2019-01-30T02:13:58.566Z,23.70
2019-01-30T02:16:30.502Z,24.57
2019-01-30T02:18:59.672Z,24.20
2019-01-30T02:21:29.401Z,26.23
2019-01-30T02:23:58.580Z,24.70
2019-01-30T02:26:28.636Z,27.70
2019-01-30T02:28:57.808Z,23.13
2019-01-30T02:31:26.984Z,23.03
2019-01-30T02:33:56.156Z,24.27
2019-01-30T02:36:25.352Z,23.53
2019-01-30T02:38:54.528Z,23.43
2019-01-30T02:41:23.687Z,26.90
2019-01-30T02:43:52.893Z,18.50
2019-01-30T02:46:22.088Z,21.30
2019-01-30T02:48:51.676Z,24.00
2019-01-30T02:51:20.879Z,24.63
2019-01-30T02:53:50.045Z,23.27
2019-01-30T02:56:19.243Z,27.97
2019-01-30T02:58:48.424Z,24.87
2019-01-30T03:01:17.616Z,27.93
2019-01-30T03:03:46.808Z,27.03
2019-01-30T03:06:15.988Z,27.33
2019-01-30T03:08:45.142Z,27.07
2019-01-30T03:11:14.332Z,24.10
2019-01-30T03:13:43.508Z,23.83
2019-01-30T03:16:13.242Z,29.73
2019-01-30T03:18:42.362Z,30.20
2019-01-30T03:21:11.535Z,29.60
2019-01-30T03:23:40.703Z,27.83
2019-01-30T03:26:09.928Z,24.53
2019-01-30T03:28:39.091Z,20.60
2019-01-30T03:31:17.470Z,20.60
2019-01-30T03:33:39.105Z,21.37
2019-01-30T03:36:08.268Z,21.80
2019-01-30T03:38:54.823Z,21.43
2019-01-30T03:41:24.052Z,22.90
2019-01-30T03:43:53.410Z,23.40
2019-01-30T03:46:22.540Z,24.03
2019-01-30T03:48:51.718Z,22.87
2019-01-30T03:51:20.925Z,26.77
2019-01-30T03:53:50.110Z,26.47
2019-01-30T03:56:19.283Z,25.77
2019-01-30T03:58:48.489Z,27.03
2019-01-30T04:01:26.495Z,25.47
2019-01-30T04:03:48.612Z,21.97
2019-01-30T04:06:17.824Z,21.93
2019-01-30T04:08:47.050Z,20.83
2019-01-30T04:11:16.223Z,22.17
2019-01-30T04:13:45.386Z,22.20
2019-01-30T04:16:14.977Z,22.23
2019-01-30T04:18:44.240Z,19.17
2019-01-30T04:21:13.457Z,20.50
2019-01-30T04:23:42.659Z,19.00
2019-01-30T04:26:11.827Z,19.67
2019-01-30T04:28:41.033Z,21.33
2019-01-30T04:31:10.207Z,22.23
2019-01-30T04:33:39.414Z,20.20
2019-01-30T04:36:08.579Z,20.60
2019-01-30T04:38:37.739Z,25.47
2019-01-30T04:41:06.929Z,25.87
2019-01-30T04:43:36.561Z,24.97
2019-01-30T04:46:05.812Z,23.90
2019-01-30T04:48:35.001Z,20.70
2019-01-30T04:51:04.176Z,20.97
2019-01-30T04:53:33.402Z,19.77
2019-01-30T04:56:02.577Z,20.27
2019-01-30T04:58:31.777Z,19.57
2019-01-30T05:01:00.939Z,20.93
2019-01-30T05:03:30.141Z,18.77
2019-01-30T05:05:59.315Z,19.70
2019-01-30T05:08:28.504Z,19.50
2019-01-30T05:10:59.241Z,20.03
2019-01-30T05:13:28.431Z,22.37
2019-01-30T05:15:58.201Z,20.80
2019-01-30T05:18:27.337Z,21.20
2019-01-30T05:20:56.510Z,20.43
2019-01-30T05:23:25.674Z,20.90
2019-01-30T05:25:54.857Z,20.27
2019-01-30T05:28:24.024Z,22.03
2019-01-30T05:30:53.240Z,21.00
2019-01-30T05:33:22.422Z,21.20
2019-01-30T05:35:51.584Z,20.57
2019-01-30T05:38:20.768Z,21.57
2019-01-30T05:40:49.952Z,21.00
2019-01-30T05:43:19.119Z,21.63
2019-01-30T05:45:48.356Z,21.23
2019-01-30T05:48:17.530Z,20.90
2019-01-30T05:50:46.692Z,21.30
2019-01-30T05:53:15.878Z,21.07
2019-01-30T05:55:45.059Z,21.90
2019-01-30T05:58:14.228Z,23.60
2019-01-30T06:00:44.780Z,24.23
2019-01-30T06:03:13.957Z,24.70
2019-01-30T06:05:43.130Z,27.33
2019-01-30T06:08:12.305Z,25.47
2019-01-30T06:10:41.487Z,25.33
2019-01-30T06:13:10.662Z,25.53
2019-01-30T06:15:39.861Z,23.40
2019-01-30T06:18:08.984Z,23.53
2019-01-30T06:20:38.156Z,24.60
2019-01-30T06:23:07.315Z,24.90
2019-01-30T06:25:36.756Z,25.07
2019-01-30T06:28:05.953Z,25.10
2019-01-30T06:30:35.117Z,25.30
2019-01-30T06:33:04.323Z,24.73
2019-01-30T06:35:33.504Z,41.27
2019-01-30T06:38:03.089Z,49.33
2019-01-30T06:40:33.698Z,99.73
2019-01-30T06:43:03.023Z,134.17
2019-01-30T06:45:32.149Z,44.67
2019-01-30T06:48:01.373Z,38.87
2019-01-30T06:50:30.585Z,43.30
2019-01-30T06:52:59.803Z,63.60
2019-01-30T06:55:29.038Z,61.63
2019-01-30T06:57:58.305Z,62.60
2019-01-30T07:00:27.783Z,59.70
2019-01-30T07:02:58.070Z,76.00
2019-01-30T07:05:27.234Z,61.50
2019-01-30T07:07:56.461Z,53.47
2019-01-30T07:10:27.467Z,37.67
2019-01-30T07:12:56.565Z,38.77
2019-01-30T07:15:25.881Z,53.17
2019-01-30T07:17:55.143Z,37.20
2019-01-30T07:20:24.352Z,33.67
2019-01-30T07:22:53.556Z,34.57
2019-01-30T07:25:22.992Z,34.20
2019-01-30T07:27:52.178Z,32.37
2019-01-30T07:30:35.255Z,37.40
2019-01-30T07:33:06.122Z,38.93
2019-01-30T07:35:35.353Z,47.47
2019-01-30T07:38:04.566Z,38.50
2019-01-30T07:40:33.771Z,39.33
2019-01-30T07:43:03.027Z,42.80
2019-01-30T07:45:32.163Z,43.20
2019-01-30T07:48:01.362Z,45.03
2019-01-30T07:50:30.559Z,46.17
2019-01-30T07:52:59.799Z,45.13
2019-01-30T07:55:29.092Z,43.40
2019-01-30T07:57:58.316Z,46.83
2019-01-30T08:00:32.730Z,47.40
2019-01-30T08:03:02.380Z,45.97
2019-01-30T08:05:31.619Z,65.40
2019-01-30T08:08:00.819Z,58.10
2019-01-30T08:10:31.244Z,63.50
2019-01-30T08:13:00.397Z,55.13
2019-01-30T08:15:29.637Z,93.37
2019-01-30T08:17:59.201Z,142.57
2019-01-30T08:20:28.445Z,92.00
2019-01-30T08:22:57.977Z,71.07
2019-01-30T08:25:27.702Z,45.13
2019-01-30T08:27:57.449Z,44.07
2019-01-30T08:30:31.399Z,56.43
2019-01-30T08:33:05.836Z,61.83
2019-01-30T08:35:35.193Z,58.27
2019-01-30T08:38:05.502Z,65.53
2019-01-30T08:40:35.245Z,124.33
2019-01-30T08:43:04.560Z,75.67
2019-01-30T08:45:33.899Z,51.83
2019-01-30T08:48:03.282Z,53.63
2019-01-30T08:50:32.604Z,48.17
2019-01-30T08:53:01.888Z,54.63
2019-01-30T08:55:31.193Z,56.57
2019-01-30T08:58:00.687Z,55.60
2019-01-30T09:00:30.541Z,54.67
2019-01-30T09:03:01.627Z,59.90
2019-01-30T09:05:31.056Z,57.17
2019-01-30T09:08:00.325Z,57.23
2019-01-30T09:10:29.593Z,57.27
2019-01-30T09:12:58.810Z,55.33
2019-01-30T09:15:28.699Z,75.67
2019-01-30T09:17:59.343Z,67.77
2019-01-30T09:20:29.193Z,60.97
2019-01-30T09:22:58.473Z,62.20
2019-01-30T09:25:29.954Z,56.43
2019-01-30T09:28:02.244Z,60.37
2019-01-30T09:30:33.925Z,67.97
2019-01-30T09:33:03.313Z,65.43
2019-01-30T09:35:32.579Z,69.07
2019-01-30T09:38:01.900Z,60.73
2019-01-30T09:40:31.400Z,60.20
2019-01-30T09:43:01.011Z,61.83
2019-01-30T09:45:30.265Z,65.73
2019-01-30T09:47:59.458Z,58.03
2019-01-30T09:50:28.690Z,55.50
2019-01-30T09:53:00.735Z,53.07
2019-01-30T09:55:30.028Z,51.50
2019-01-30T09:57:59.773Z,51.60
2019-01-30T10:00:30.936Z,56.47
2019-01-30T10:03:01.964Z,55.60
2019-01-30T10:05:31.490Z,57.73
2019-01-30T10:08:00.705Z,68.07
2019-01-30T10:10:34.704Z,71.90
2019-01-30T10:13:04.101Z,70.13
2019-01-30T10:15:38.554Z,69.13
2019-01-30T10:18:08.366Z,88.00
2019-01-30T10:20:38.373Z,76.83
2019-01-30T10:23:08.132Z,78.80
2019-01-30T10:25:37.326Z,92.00
2019-01-30T10:28:16.327Z,93.30
2019-01-30T10:30:39.558Z,79.37
2019-01-30T10:33:08.804Z,79.03
2019-01-30T10:35:38.615Z,68.33
2019-01-30T10:38:07.878Z,62.40
2019-01-30T10:40:37.232Z,62.30
2019-01-30T10:43:06.619Z,64.53
2019-01-30T10:45:38.175Z,60.77
2019-01-30T10:48:08.181Z,61.73
2019-01-30T10:50:37.846Z,66.50
2019-01-30T10:53:07.054Z,63.80
2019-01-30T10:55:36.958Z,61.03
2019-01-30T10:58:08.977Z,70.47
2019-01-30T11:00:41.334Z,85.00
2019-01-30T11:03:10.667Z,89.03
2019-01-30T11:05:39.933Z,75.93
2019-01-30T11:08:09.165Z,71.33
2019-01-30T11:10:39.017Z,72.77
2019-01-30T11:13:08.342Z,115.77
2019-01-30T11:15:38.070Z,137.83
2019-01-30T11:18:14.738Z,133.87
2019-01-30T11:20:43.999Z,81.03
2019-01-30T11:23:14.732Z,75.10
2019-01-30T11:25:45.714Z,66.53
2019-01-30T11:28:15.265Z,71.17
2019-01-30T11:30:45.480Z,67.47
2019-01-30T11:33:15.626Z,67.10
2019-01-30T11:35:45.222Z,62.60
2019-01-30T11:38:14.783Z,65.63
2019-01-30T11:40:44.409Z,77.33
2019-01-30T11:43:13.692Z,74.63
2019-01-30T11:45:44.502Z,71.17
2019-01-30T11:48:13.722Z,69.47
2019-01-30T11:50:43.470Z,68.57
2019-01-30T11:53:13.157Z,65.50
2019-01-30T11:55:42.448Z,64.60
2019-01-30T11:58:16.388Z,68.73
2019-01-30T12:00:53.080Z,66.47
2019-01-30T12:03:22.720Z,62.37
2019-01-30T12:05:52.365Z,59.33
2019-01-30T12:08:21.940Z,62.77
2019-01-30T12:10:51.158Z,77.73
2019-01-30T12:13:20.461Z,71.90
2019-01-30T12:15:50.321Z,67.30
2019-01-30T12:18:19.746Z,64.00
2019-01-30T12:20:51.828Z,59.33
2019-01-30T12:23:20.387Z,57.30
2019-01-30T12:25:50.171Z,56.57
2019-01-30T12:28:19.490Z,69.10
2019-01-30T12:30:48.712Z,68.90
2019-01-30T12:33:17.990Z,65.90
2019-01-30T12:35:47.534Z,66.70
2019-01-30T12:38:17.241Z,66.97
2019-01-30T12:40:46.505Z,59.67
2019-01-30T12:43:15.704Z,63.00
2019-01-30T12:45:44.931Z,66.80
2019-01-30T12:48:14.624Z,66.43
2019-01-30T12:50:43.883Z,60.67
2019-01-30T12:53:13.178Z,63.20
2019-01-30T12:55:42.404Z,57.20
2019-01-30T12:58:13.572Z,56.13
2019-01-30T13:00:42.905Z,59.03
2019-01-30T13:03:12.155Z,62.40
2019-01-30T13:05:41.888Z,87.33
2019-01-30T13:08:11.292Z,110.13
2019-01-30T13:10:42.326Z,97.87
2019-01-30T13:13:11.681Z,187.43
2019-01-30T13:15:43.015Z,113.40
2019-01-30T13:18:18.035Z,56.50
2019-01-30T13:20:43.194Z,229.37
2019-01-30T13:23:12.441Z,116.97
2019-01-30T13:25:41.713Z,82.70
2019-01-30T13:28:10.943Z,66.20
2019-01-30T13:30:43.568Z,159.37
2019-01-30T13:33:11.948Z,77.23
2019-01-30T13:35:41.196Z,64.43
2019-01-30T13:38:11.004Z,59.03
2019-01-30T13:40:41.392Z,61.97
2019-01-30T13:43:11.083Z,49.73
2019-01-30T13:45:40.342Z,67.23
2019-01-30T13:48:22.622Z,65.33
2019-01-30T13:50:51.843Z,63.13
2019-01-30T13:53:21.106Z,50.23
2019-01-30T13:55:50.895Z,61.47
2019-01-30T13:58:20.284Z,42.57
2019-01-30T14:00:49.561Z,53.73
2019-01-30T14:03:18.816Z,43.13
2019-01-30T14:05:48.132Z,56.20
2019-01-30T14:08:17.437Z,48.10
2019-01-30T14:10:47.076Z,46.17
2019-01-30T14:13:16.447Z,46.00
2019-01-30T14:15:46.108Z,71.80
2019-01-30T14:18:15.621Z,62.17
2019-01-30T14:20:45.521Z,46.47
2019-01-30T14:23:14.954Z,47.47
2019-01-30T14:25:44.236Z,54.83
2019-01-30T14:28:15.205Z,43.67
2019-01-30T14:30:45.922Z,40.03
2019-01-30T14:33:15.601Z,41.53
2019-01-30T14:35:46.328Z,45.67
2019-01-30T14:38:15.578Z,43.13
2019-01-30T14:40:44.799Z,40.40
2019-01-30T14:43:14.647Z,42.50
2019-01-30T14:45:44.025Z,40.53
2019-01-30T14:48:14.137Z,41.57
2019-01-30T14:50:43.318Z,37.60
2019-01-30T14:53:12.532Z,37.70
2019-01-30T14:55:41.737Z,41.73
2019-01-30T14:58:11.086Z,41.37
2019-01-30T15:00:40.291Z,39.30
2019-01-30T15:03:09.517Z,44.90
2019-01-30T15:05:38.772Z,38.27
2019-01-30T15:08:07.975Z,36.30
2019-01-30T15:10:37.151Z,42.37
2019-01-30T15:13:11.470Z,57.77
2019-01-30T15:15:38.270Z,79.80
2019-01-30T15:18:08.520Z,85.90
2019-01-30T15:20:38.812Z,71.17
2019-01-30T15:23:09.925Z,54.83
2019-01-30T15:25:39.157Z,48.97
2019-01-30T15:28:09.109Z,48.97
2019-01-30T15:30:40.955Z,48.20
2019-01-30T15:33:10.775Z,51.77
2019-01-30T15:35:40.006Z,87.20
2019-01-30T15:38:11.077Z,69.30
2019-01-30T15:40:40.421Z,80.57
2019-01-30T15:43:09.641Z,88.70
2019-01-30T15:45:39.263Z,48.47
2019-01-30T15:48:08.488Z,52.20
2019-01-30T15:50:39.216Z,59.07
2019-01-30T15:53:11.543Z,44.70
2019-01-30T15:55:40.802Z,46.53
2019-01-30T15:58:13.230Z,51.17
2019-01-30T16:00:45.097Z,52.73
2019-01-30T16:03:14.310Z,49.40
2019-01-30T16:05:45.057Z,46.20
2019-01-30T16:08:14.804Z,45.10
2019-01-30T16:10:44.025Z,50.57
2019-01-30T16:13:13.237Z,50.47
2019-01-30T16:15:48.668Z,45.27
2019-01-30T16:18:18.224Z,44.07
2019-01-30T16:20:47.437Z,40.60
2019-01-30T16:23:16.639Z,47.07
2019-01-30T16:25:45.841Z,49.70
2019-01-30T16:28:15.100Z,45.67
2019-01-30T16:30:44.618Z,43.03
2019-01-30T16:33:14.781Z,41.23
2019-01-30T16:35:55.321Z,41.90
2019-01-30T16:38:14.875Z,43.13
2019-01-30T16:40:44.121Z,47.97
2019-01-30T16:43:14.207Z,52.03
2019-01-30T16:45:43.575Z,47.97
2019-01-30T16:48:12.909Z,39.97
2019-01-30T16:50:42.116Z,40.90
2019-01-30T16:53:11.399Z,45.63
2019-01-30T16:55:40.651Z,46.33
2019-01-30T16:58:11.380Z,40.80
2019-01-30T17:00:40.678Z,46.37
2019-01-30T17:03:10.145Z,44.50
2019-01-30T17:05:39.606Z,44.93
2019-01-30T17:08:08.977Z,40.77
2019-01-30T17:10:38.172Z,40.67
2019-01-30T17:13:07.655Z,40.63
2019-01-30T17:15:37.607Z,43.87
2019-01-30T17:18:08.022Z,43.03
2019-01-30T17:20:38.385Z,46.47
2019-01-30T17:23:07.649Z,43.27
2019-01-30T17:25:36.904Z,43.17
2019-01-30T17:28:06.209Z,47.43
2019-01-30T17:30:41.464Z,44.43
2019-01-30T17:33:11.299Z,41.27
2019-01-30T17:35:41.421Z,42.00
2019-01-30T17:38:10.852Z,45.30
2019-01-30T17:40:40.079Z,45.57
2019-01-30T17:43:09.334Z,47.17
2019-01-30T17:45:38.950Z,48.50
2019-01-30T17:48:09.358Z,47.07
2019-01-30T17:50:38.561Z,47.47
2019-01-30T17:53:09.464Z,55.53
2019-01-30T17:55:38.701Z,40.93
2019-01-30T17:58:12.106Z,47.20
2019-01-30T18:01:00.350Z,42.30
2019-01-30T18:03:29.580Z,42.13
2019-01-30T18:05:58.787Z,41.00
2019-01-30T18:08:28.035Z,43.80
2019-01-30T18:10:57.310Z,47.00
2019-01-30T18:13:26.612Z,40.20
2019-01-30T18:15:55.802Z,37.63
2019-01-30T18:18:25.011Z,38.90
2019-01-30T18:20:54.584Z,40.07
2019-01-30T18:23:23.840Z,38.07
2019-01-30T18:25:53.072Z,38.87
2019-01-30T18:28:22.566Z,45.93
2019-01-30T18:30:51.808Z,41.77
2019-01-30T18:33:21.015Z,49.23
2019-01-30T18:35:50.137Z,52.07
2019-01-30T18:38:19.625Z,62.83
2019-01-30T18:40:49.622Z,42.07
2019-01-30T18:43:26.929Z,57.17
2019-01-30T18:45:57.554Z,49.70
2019-01-30T18:48:26.856Z,53.67
2019-01-30T18:50:57.039Z,48.70
2019-01-30T18:53:26.276Z,43.60
2019-01-30T18:55:58.019Z,50.90
2019-01-30T18:58:34.861Z,47.60
2019-01-30T19:01:06.727Z,55.83
2019-01-30T19:03:34.921Z,47.70
2019-01-30T19:06:04.210Z,49.73
2019-01-30T19:08:33.403Z,49.73
2019-01-30T19:11:03.185Z,105.97
2019-01-30T19:13:32.370Z,75.30
2019-01-30T19:16:01.580Z,79.63
2019-01-30T19:18:30.796Z,66.87
2019-01-30T19:20:59.993Z,51.97
2019-01-30T19:23:29.249Z,57.20
2019-01-30T19:25:59.213Z,49.70
2019-01-30T19:28:28.472Z,49.80
2019-01-30T19:30:57.665Z,51.20
2019-01-30T19:33:26.857Z,42.97
2019-01-30T19:35:56.104Z,51.10
2019-01-30T19:38:25.311Z,54.63
2019-01-30T19:40:54.475Z,53.70
2019-01-30T19:43:23.731Z,54.03
2019-01-30T19:45:52.925Z,48.10
2019-01-30T19:48:22.146Z,52.33
2019-01-30T19:50:51.365Z,47.70
2019-01-30T19:53:20.576Z,47.20
2019-01-30T19:55:49.859Z,50.30
2019-01-30T19:58:19.111Z,58.37
2019-01-30T20:00:49.227Z,82.00
2019-01-30T20:03:21.517Z,73.97
2019-01-30T20:05:50.786Z,58.60
2019-01-30T20:08:20.035Z,58.93
2019-01-30T20:10:49.545Z,58.63
2019-01-30T20:13:18.796Z,53.77
2019-01-30T20:15:48.024Z,52.60
2019-01-30T20:18:17.240Z,52.27
2019-01-30T20:20:46.413Z,48.93
2019-01-30T20:23:17.037Z,51.70
2019-01-30T20:25:46.577Z,51.70
2019-01-30T20:28:15.765Z,56.57
2019-01-30T20:30:44.969Z,59.43
2019-01-30T20:33:14.492Z,55.73
2019-01-30T20:35:43.934Z,59.57
2019-01-30T20:38:13.174Z,54.80
2019-01-30T20:40:42.370Z,59.87
2019-01-30T20:43:11.651Z,70.47
2019-01-30T20:45:41.218Z,56.03
2019-01-30T20:48:10.870Z,69.77
2019-01-30T20:50:40.148Z,77.40
2019-01-30T20:53:09.368Z,68.70
2019-01-30T20:55:38.577Z,77.77
2019-01-30T20:58:07.823Z,57.17
2019-01-30T21:00:40.777Z,60.27
2019-01-30T21:03:10.415Z,64.20
2019-01-30T21:05:40.858Z,55.43
2019-01-30T21:08:10.102Z,51.03
2019-01-30T21:10:41.382Z,56.80
2019-01-30T21:13:13.152Z,61.47
2019-01-30T21:15:42.347Z,53.93
2019-01-30T21:18:12.525Z,51.30
2019-01-30T21:20:42.131Z,52.50
2019-01-30T21:23:11.936Z,54.53
2019-01-30T21:25:41.137Z,52.73
2019-01-30T21:28:10.356Z,45.13
2019-01-30T21:30:39.854Z,39.67
2019-01-30T21:33:09.057Z,44.73
2019-01-30T21:35:38.668Z,37.80
2019-01-30T21:38:07.916Z,45.00
2019-01-30T21:40:37.125Z,42.97
2019-01-30T21:43:06.368Z,47.20
2019-01-30T21:45:35.543Z,45.33
2019-01-30T21:48:05.271Z,42.63
2019-01-30T21:50:35.395Z,45.03
2019-01-30T21:53:05.069Z,43.23
2019-01-30T21:55:34.200Z,37.47
2019-01-30T21:58:04.327Z,43.23
2019-01-30T22:00:33.541Z,42.10
2019-01-30T22:03:02.743Z,41.70
2019-01-30T22:05:31.990Z,42.67
2019-01-30T22:08:01.484Z,44.57
2019-01-30T22:10:31.246Z,40.17
2019-01-30T22:13:00.482Z,42.23
2019-01-30T22:15:29.668Z,39.17
2019-01-30T22:17:58.983Z,38.47
2019-01-30T22:20:28.245Z,34.13
2019-01-30T22:22:57.424Z,39.07
2019-01-30T22:25:27.596Z,42.13
2019-01-30T22:27:56.777Z,37.00
2019-01-30T22:30:33.605Z,37.87
2019-01-30T22:33:03.028Z,52.07
2019-01-30T22:35:32.213Z,36.73
2019-01-30T22:38:11.612Z,30.77
2019-01-30T22:40:32.311Z,32.80
2019-01-30T22:43:01.495Z,30.27
2019-01-30T22:45:30.683Z,37.23
2019-01-30T22:48:00.076Z,31.70
2019-01-30T22:50:29.272Z,31.50
2019-01-30T22:52:58.396Z,31.20
2019-01-30T22:55:27.564Z,31.27
2019-01-30T22:57:56.800Z,32.13
2019-01-30T23:00:52.371Z,28.67
2019-01-30T23:03:25.688Z,31.70
2019-01-30T23:06:21.687Z,32.17
2019-01-30T23:09:19.052Z,30.03
2019-01-30T23:12:16.984Z,29.87
2019-01-30T23:14:57.020Z,31.33
2019-01-30T23:18:06.747Z,32.93
2019-01-30T23:20:45.480Z,29.27
2019-01-30T23:23:55.645Z,33.37
2019-01-30T23:27:01.663Z,31.20
2019-01-30T23:30:15.926Z,29.30
2019-01-30T23:33:37.513Z,29.90
2019-01-30T23:36:46.741Z,30.93
2019-01-30T23:40:08.208Z,36.47
2019-01-30T23:42:59.085Z,31.43
2019-01-30T23:45:59.886Z,30.20
2019-01-30T23:48:55.188Z,32.30
2019-01-30T23:52:24.308Z,44.17
2019-01-30T23:55:08.345Z,27.97
2019-01-30T23:58:22.783Z,29.60
